Time;durP1;ratioP1;P1;durP2;ratioP2;P2;SDS_P1;SDS_P2;PMS_P1;PMS_P2;Temp;Humidity;BMP_temperature;BMP_pressure;BME280_temperature;BME280_humidity;BME280_pressure;Samples;Min_cycle;Max_cycle;Signal;HPM_P1;HPM_P2
2024/01/29 00:00:45;;;;;;;;;;;;;;;;;;5094244;28;858;-61
2024/01/29 00:03:10;;;;;;;;;;;;;;;;;;5094347;28;1913;-61
2024/01/29 00:05:36;;;;;;;;;;;;;;;;;;5094035;28;1221;-60
2024/01/29 00:08:02;;;;;;;;;;;;;;;;;;5094066;28;1049;-60
2024/01/29 00:10:27;;;;;;;;;;;;;;;;;;5094050;28;741;-60
2024/01/29 00:12:53;;;;;;;;;;;;;;;;;;5093959;28;812;-61
2024/01/29 00:15:18;;;;;;;;;;;;;;;;;;5094373;28;800;-61
2024/01/29 00:17:43;;;;;;;;;;;;;;;;;;5093819;28;837;-61
2024/01/29 00:20:09;;;;;;;;;;;;;;;;;;5094157;28;986;-61
2024/01/29 00:22:35;;;;;;;;;;;;;;;;;;5091677;28;1977;-61
2024/01/29 00:25:00;;;;;;;;;;;;;;;;;;5090844;28;1218;-61
2024/01/29 00:27:26;;;;;;;;;;;;;;;;;;5091091;28;1155;-62
2024/01/29 00:29:51;;;;;;;;;;;;;;;;;;5093901;28;907;-62
2024/01/29 00:32:16;;;;;;;;;;;;;;;;;;5094263;28;821;-61
2024/01/29 00:34:42;;;;;;;;;;;;;;;;;;5094021;28;923;-61
2024/01/29 00:37:08;;;;;;;;;;;;;;;;;;5093922;28;861;-61
2024/01/29 00:39:33;;;;;;;;;;;;;;;;;;5094685;28;974;-61
2024/01/29 00:41:58;;;;;;;;;;;;;;;;;;5094163;28;1976;-60
2024/01/29 00:44:23;;;;;;;;;;;;;;;;;;5094558;28;828;-60
2024/01/29 00:46:49;;;;;;;;;;;;;;;;;;5093500;28;828;-61
2024/01/29 00:49:14;;;;;;;;;;;;;;;;;;5093261;28;1126;-61
2024/01/29 00:51:40;;;;;;;;;;;;;;;;;;5093305;28;820;-61
2024/01/29 00:54:05;;;;;;;;;;;;;;;;;;5093528;28;961;-60
2024/01/29 00:56:31;;;;;;;;;;;;;;;;;;5102266;28;906;-60
2024/01/29 00:58:56;;;;;;;;;;;;;;;;;;5113322;28;833;-61
2024/01/29 01:01:21;;;;;;;;;;;;;;;;;;5113820;28;1882;-61
2024/01/29 01:03:46;;;;;;;;;;;;;;;;;;5113642;28;860;-61
2024/01/29 01:06:12;;;;;;;;;;;;;;;;;;5112185;28;1272;-61
2024/01/29 01:08:37;;;;;;;;;;;;;;;;;;5113853;28;824;-61
2024/01/29 01:11:03;;;;;;;;;;;;;;;;;;5112536;28;896;-61
2024/01/29 01:13:28;;;;;;;;;;;;;;;;;;5113346;28;1241;-61
2024/01/29 01:15:53;;;;;;;;;;;;;;;;;;5113619;28;827;-61
2024/01/29 01:18:18;;;;;;;;;;;;;;;;;;5113561;28;1049;-61
2024/01/29 01:20:44;;;;;;;;;;;;;;;;;;5113291;28;892;-61
2024/01/29 01:23:09;;;;;;;;;;;;;;;;;;5113746;28;1914;-61
2024/01/29 01:25:34;;;;;;;;;;;;;;;;;;5113714;28;981;-61
2024/01/29 01:27:59;;;;;;;;;;;;;;;;;;5113647;28;852;-62
2024/01/29 01:30:25;;;;;;;;;;;;;;;;;;5115834;28;998;-61
2024/01/29 01:32:50;;;;;;;;;;;;;;;;;;5117301;28;698;-61
2024/01/29 01:35:15;;;;;;;;;;;;;;;;;;5117832;28;828;-61
2024/01/29 01:37:41;;;;;;;;;;;;;;;;;;5117662;28;844;-61
2024/01/29 01:40:06;;;;;;;;;;;;;;;;;;5117478;28;876;-62
2024/01/29 01:42:31;;;;;;;;;;;;;;;;;;5117386;28;1897;-61
2024/01/29 01:44:57;;;;;;;;;;;;;;;;;;5117398;28;1024;-61
2024/01/29 01:47:22;;;;;;;;;;;;;;;;;;5117337;28;891;-61
2024/01/29 01:49:47;;;;;;;;;;;;;;;;;;5117065;28;1207;-61
2024/01/29 01:52:13;;;;;;;;;;;;;;;;;;5117012;28;942;-61
2024/01/29 01:54:39;;;;;;;;;;;;;;;;;;5117082;28;831;-61
2024/01/29 01:57:04;;;;;;;;;;;;;;;;;;5116807;28;1041;-61
2024/01/29 01:59:33;;;;;;;;;;;;;;;;;;5117524;28;1025;-61
2024/01/29 02:01:58;;;;;;;;;;;;;;;;;;5117467;28;1901;-61
2024/01/29 02:04:23;;;;;;;;;;;;;;;;;;5117045;28;1009;-61
2024/01/29 02:06:51;;;;;;;;;;;;;;;;;;5117430;28;891;-61
2024/01/29 02:09:16;;;;;;;;;;;;;;;;;;5117167;28;1028;-61
2024/01/29 02:11:42;;;;;;;;;;;;;;;;;;5117091;28;813;-62
2024/01/29 02:14:07;;;;;;;;;;;;;;;;;;5117179;28;1002;-62
2024/01/29 02:16:32;;;;;;;;;;;;;;;;;;5117494;28;898;-61
2024/01/29 02:18:57;;;;;;;;;;;;;;;;;;5117106;28;927;-60
2024/01/29 02:21:22;;;;;;;;;;;;;;;;;;5116905;28;1957;-61
2024/01/29 02:23:48;;;;;;;;;;;;;;;;;;5117667;28;986;-60
2024/01/29 02:26:13;;;;;;;;;;;;;;;;;;5117182;28;824;-60
2024/01/29 02:28:38;;;;;;;;;;;;;;;;;;5116410;28;824;-61
2024/01/29 02:31:04;;;;;;;;;;;;;;;;;;5116764;28;844;-60
2024/01/29 02:33:30;;;;;;;;;;;;;;;;;;5115057;28;1052;-60
2024/01/29 02:35:56;;;;;;;;;;;;;;;;;;5116767;28;994;-61
2024/01/29 02:38:21;;;;;;;;;;;;;;;;;;5116481;28;859;-61
2024/01/29 02:40:46;;;;;;;;;;;;;;;;;;5115828;28;800;-60
2024/01/29 02:43:11;;;;;;;;;;;;;;;;;;5115940;28;1908;-60
2024/01/29 02:45:36;;;;;;;;;;;;;;;;;;5115703;28;939;-59
2024/01/29 02:48:02;;;;;;;;;;;;;;;;;;5115912;28;931;-60
2024/01/29 02:50:29;;;;;;;;;;;;;;;;;;5115799;28;869;-60
2024/01/29 02:52:54;;;;;;;;;;;;;;;;;;5115453;28;853;-61
2024/01/29 02:55:19;;;;;;;;;;;;;;;;;;5115843;28;916;-60
2024/01/29 02:57:45;;;;;;;;;;;;;;;;;;5115495;28;957;-61
2024/01/29 03:00:10;;;;;;;;;;;;;;;;;;5115777;28;903;-60
2024/01/29 03:02:35;;;;;;;;;;;;;;;;;;5115907;28;1956;-60
2024/01/29 03:05:01;;;;;;;;;;;;;;;;;;5116086;28;900;-60
2024/01/29 03:07:26;;;;;;;;;;;;;;;;;;5114531;28;1238;-60
2024/01/29 03:09:51;;;;;;;;;;;;;;;;;;5115653;28;1006;-62
2024/01/29 03:12:17;;;;;;;;;;;;;;;;;;5115953;28;793;-61
2024/01/29 03:14:42;;;;;;;;;;;;;;;;;;5114001;28;1233;-61
2024/01/29 03:17:07;;;;;;;;;;;;;;;;;;5101294;27;1099;-61
2024/01/29 03:19:33;;;;;;;;;;;;;;;;;;5097879;28;1174;-61
2024/01/29 03:21:58;;;;;;;;;;;;;;;;;;5095285;28;1905;-61
2024/01/29 03:24:23;;;;;;;;;;;;;;;;;;5112230;28;1246;-61
2024/01/29 03:26:48;;;;;;;;;;;;;;;;;;5098182;28;1131;-61
2024/01/29 03:29:14;;;;;;;;;;;;;;;;;;5094569;28;1029;-60
2024/01/29 03:31:39;;;;;;;;;;;;;;;;;;5095765;28;1234;-60
2024/01/29 03:34:04;;;;;;;;;;;;;;;;;;5097793;28;1088;-60
2024/01/29 03:36:29;;;;;;;;;;;;;;;;;;5111885;28;1235;-61
2024/01/29 03:38:55;;;;;;;;;;;;;;;;;;5107335;28;1195;-61
2024/01/29 03:41:20;;;;;;;;;;;;;;;;;;5095111;28;1901;-60
2024/01/29 03:43:45;;;;;;;;;;;;;;;;;;5109697;28;1250;-61
2024/01/29 03:46:10;;;;;;;;;;;;;;;;;;5091522;28;1171;-60
2024/01/29 03:48:35;;;;;;;;;;;;;;;;;;5099562;28;1152;-60
2024/01/29 03:51:01;;;;;;;;;;;;;;;;;;5106009;28;1139;-60
2024/01/29 03:53:26;;;;;;;;;;;;;;;;;;5108497;28;1162;-60
2024/01/29 03:55:52;;;;;;;;;;;;;;;;;;5112941;28;1218;-61
2024/01/29 03:58:17;;;;;;;;;;;;;;;;;;5115444;28;855;-61
2024/01/29 04:00:43;;;;;;;;;;;;;;;;;;5114836;28;1002;-61
2024/01/29 04:03:08;;;;;;;;;;;;;;;;;;5114801;28;1906;-61
2024/01/29 04:05:33;;;;;;;;;;;;;;;;;;5115610;28;824;-60
2024/01/29 04:07:59;;;;;;;;;;;;;;;;;;5114555;28;844;-60
2024/01/29 04:10:24;;;;;;;;;;;;;;;;;;5115004;28;1014;-60
2024/01/29 04:12:49;;;;;;;;;;;;;;;;;;5114613;28;1006;-60
2024/01/29 04:15:14;;;;;;;;;;;;;;;;;;5114698;28;986;-60
2024/01/29 04:17:40;;;;;;;;;;;;;;;;;;5115005;28;852;-60
2024/01/29 04:20:05;;;;;;;;;;;;;;;;;;5114532;28;903;-60
2024/01/29 04:22:32;;;;;;;;;;;;;;;;;;5114938;28;1960;-61
2024/01/29 04:24:58;;;;;;;;;;;;;;;;;;5114352;28;843;-60
2024/01/29 04:27:23;;;;;;;;;;;;;;;;;;5114122;28;989;-60
2024/01/29 04:29:48;;;;;;;;;;;;;;;;;;5112714;28;1146;-60
2024/01/29 04:32:14;;;;;;;;;;;;;;;;;;5110132;28;1099;-61
2024/01/29 04:34:39;;;;;;;;;;;;;;;;;;5113200;28;1182;-61
2024/01/29 04:37:04;;;;;;;;;;;;;;;;;;5113980;28;854;-60
2024/01/29 04:39:29;;;;;;;;;;;;;;;;;;5114100;28;907;-61
2024/01/29 04:41:55;;;;;;;;;;;;;;;;;;5113855;28;1902;-60
2024/01/29 04:44:21;;;;;;;;;;;;;;;;;;5114234;28;821;-60
2024/01/29 04:46:46;;;;;;;;;;;;;;;;;;5114061;28;848;-60
2024/01/29 04:49:11;;;;;;;;;;;;;;;;;;5113665;28;990;-60
2024/01/29 04:51:37;;;;;;;;;;;;;;;;;;5113583;28;852;-61
2024/01/29 04:54:03;;;;;;;;;;;;;;;;;;5113753;28;806;-62
2024/01/29 04:56:28;;;;;;;;;;;;;;;;;;5113518;28;1026;-61
2024/01/29 04:58:53;;;;;;;;;;;;;;;;;;5113797;28;891;-61
2024/01/29 05:01:18;;;;;;;;;;;;;;;;;;5113582;28;2042;-61
2024/01/29 05:03:44;;;;;;;;;;;;;;;;;;5099291;28;1249;-61
2024/01/29 05:06:09;;;;;;;;;;;;;;;;;;5099907;28;899;-61
2024/01/29 05:08:34;;;;;;;;;;;;;;;;;;5099954;28;1052;-61
2024/01/29 05:11:00;;;;;;;;;;;;;;;;;;5099016;28;967;-61
2024/01/29 05:13:25;;;;;;;;;;;;;;;;;;5100019;28;814;-61
2024/01/29 05:15:50;;;;;;;;;;;;;;;;;;5100002;28;1011;-61
2024/01/29 05:18:16;;;;;;;;;;;;;;;;;;5100585;28;804;-61
2024/01/29 05:20:41;;;;;;;;;;;;;;;;;;5100243;28;868;-61
2024/01/29 05:23:06;;;;;;;;;;;;;;;;;;5100380;28;1897;-61
2024/01/29 05:25:32;;;;;;;;;;;;;;;;;;5100137;28;840;-60
2024/01/29 05:27:57;;;;;;;;;;;;;;;;;;5100257;28;844;-60
2024/01/29 05:30:23;;;;;;;;;;;;;;;;;;5100059;28;919;-61
2024/01/29 05:32:48;;;;;;;;;;;;;;;;;;5098813;28;856;-61
2024/01/29 05:35:13;;;;;;;;;;;;;;;;;;5099720;28;860;-61
2024/01/29 05:37:38;;;;;;;;;;;;;;;;;;5099845;28;903;-61
2024/01/29 05:40:04;;;;;;;;;;;;;;;;;;5100144;28;872;-61
2024/01/29 05:42:30;;;;;;;;;;;;;;;;;;5100528;28;1905;-61
2024/01/29 05:44:55;;;;;;;;;;;;;;;;;;5100089;28;882;-61
2024/01/29 05:47:20;;;;;;;;;;;;;;;;;;5099042;28;1038;-61
2024/01/29 05:49:45;;;;;;;;;;;;;;;;;;5099862;28;951;-60
2024/01/29 05:52:10;;;;;;;;;;;;;;;;;;5099866;28;892;-61
2024/01/29 05:54:36;;;;;;;;;;;;;;;;;;5099746;28;899;-60
2024/01/29 05:57:01;;;;;;;;;;;;;;;;;;5099846;28;949;-60
2024/01/29 05:59:26;;;;;;;;;;;;;;;;;;5099775;28;961;-60
2024/01/29 06:01:51;;;;;;;;;;;;;;;;;;5099597;28;1906;-61
2024/01/29 06:04:17;;;;;;;;;;;;;;;;;;5081385;28;923;-61
2024/01/29 06:06:43;;;;;;;;;;;;;;;;;;5099767;28;1006;-60
2024/01/29 06:09:09;;;;;;;;;;;;;;;;;;5099425;28;859;-60
2024/01/29 06:11:35;;;;;;;;;;;;;;;;;;5099276;28;788;-60
2024/01/29 06:14:00;;;;;;;;;;;;;;;;;;5099271;28;888;-60
2024/01/29 06:16:25;;;;;;;;;;;;;;;;;;5096128;28;1093;-60
2024/01/29 06:18:50;;;;;;;;;;;;;;;;;;5096073;28;1107;-60
2024/01/29 06:21:16;;;;;;;;;;;;;;;;;;5095875;28;1978;-64
2024/01/29 06:23:41;;;;;;;;;;;;;;;;;;5095852;28;925;-60
2024/01/29 06:26:06;;;;;;;;;;;;;;;;;;5095791;28;1018;-60
2024/01/29 06:28:31;;;;;;;;;;;;;;;;;;5096184;28;903;-60
2024/01/29 06:30:57;;;;;;;;;;;;;;;;;;5095962;28;840;-60
2024/01/29 06:33:22;;;;;;;;;;;;;;;;;;5096494;28;836;-61
2024/01/29 06:35:47;;;;;;;;;;;;;;;;;;5096328;28;935;-60
2024/01/29 06:38:12;;;;;;;;;;;;;;;;;;5095871;28;832;-60
2024/01/29 06:40:37;;;;;;;;;;;;;;;;;;5095843;28;880;-60
2024/01/29 06:43:03;;;;;;;;;;;;;;;;;;5095880;28;1898;-60
2024/01/29 06:45:28;;;;;;;;;;;;;;;;;;5095743;28;895;-60
2024/01/29 06:47:54;;;;;;;;;;;;;;;;;;5095546;28;832;-60
2024/01/29 06:50:19;;;;;;;;;;;;;;;;;;5095467;28;919;-60
2024/01/29 06:52:44;;;;;;;;;;;;;;;;;;5095595;28;821;-60
2024/01/29 06:55:09;;;;;;;;;;;;;;;;;;5095360;28;1145;-60
2024/01/29 06:57:35;;;;;;;;;;;;;;;;;;5094972;28;953;-60
2024/01/29 07:00:00;;;;;;;;;;;;;;;;;;5095694;28;851;-59
2024/01/29 07:02:25;;;;;;;;;;;;;;;;;;5095482;28;1972;-60
2024/01/29 07:04:51;;;;;;;;;;;;;;;;;;5091765;28;1194;-60
2024/01/29 07:07:16;;;;;;;;;;;;;;;;;;5092533;28;1179;-60
2024/01/29 07:09:41;;;;;;;;;;;;;;;;;;5092178;28;1097;-60
2024/01/29 07:12:07;;;;;;;;;;;;;;;;;;5091857;28;1241;-60
2024/01/29 07:14:32;;;;;;;;;;;;;;;;;;5092677;28;1159;-61
2024/01/29 07:16:57;;;;;;;;;;;;;;;;;;5092978;28;1215;-61
2024/01/29 07:19:26;;;;;;;;;;;;;;;;;;5092493;28;1167;-61
2024/01/29 07:21:52;;;;;;;;;;;;;;;;;;5092160;28;1882;-61
2024/01/29 07:24:17;;;;;;;;;;;;;;;;;;5092077;28;1096;-60
2024/01/29 07:26:42;;;;;;;;;;;;;;;;;;5091973;28;1171;-61
2024/01/29 07:29:08;;;;;;;;;;;;;;;;;;5094376;28;879;-61
2024/01/29 07:31:33;;;;;;;;;;;;;;;;;;5076707;28;1266;-61
2024/01/29 07:33:59;;;;;;;;;;;;;;;;;;5094954;28;768;-60
2024/01/29 07:36:25;;;;;;;;;;;;;;;;;;5076630;28;1193;-61
2024/01/29 07:38:50;;;;;;;;;;;;;;;;;;5094384;28;821;-61
2024/01/29 07:41:15;;;;;;;;;;;;;;;;;;5095014;28;1898;-61
2024/01/29 07:43:40;;;;;;;;;;;;;;;;;;5094637;28;833;-61
2024/01/29 07:46:07;;;;;;;;;;;;;;;;;;5094091;28;1206;-61
2024/01/29 07:48:33;;;;;;;;;;;;;;;;;;5094851;28;821;-61
2024/01/29 07:50:58;;;;;;;;;;;;;;;;;;5076394;28;1182;-61
2024/01/29 07:53:23;;;;;;;;;;;;;;;;;;5094152;28;879;-61
2024/01/29 07:55:48;;;;;;;;;;;;;;;;;;5096905;28;916;-61
2024/01/29 07:58:14;;;;;;;;;;;;;;;;;;5114645;28;950;-60
2024/01/29 08:00:39;;;;;;;;;;;;;;;;;;5113411;28;1288;-60
2024/01/29 08:03:06;;;;;;;;;;;;;;;;;;5101214;28;1980;-61
2024/01/29 08:05:31;;;;;;;;;;;;;;;;;;5105408;28;1171;-60
2024/01/29 08:07:56;;;;;;;;;;;;;;;;;;5112797;28;789;-60
2024/01/29 08:10:21;;;;;;;;;;;;;;;;;;5114083;28;986;-60
2024/01/29 08:12:47;;;;;;;;;;;;;;;;;;5113098;28;895;-60
2024/01/29 08:15:12;;;;;;;;;;;;;;;;;;5113785;28;827;-60
2024/01/29 08:17:37;;;;;;;;;;;;;;;;;;5114270;28;871;-60
2024/01/29 08:20:03;;;;;;;;;;;;;;;;;;5113932;28;934;-60
2024/01/29 08:22:28;;;;;;;;;;;;;;;;;;5114133;28;1966;-61
2024/01/29 08:24:54;;;;;;;;;;;;;;;;;;5114240;28;898;-60
2024/01/29 08:27:19;;;;;;;;;;;;;;;;;;5114128;28;848;-60
2024/01/29 08:29:44;;;;;;;;;;;;;;;;;;5113945;28;1029;-60
2024/01/29 08:32:09;;;;;;;;;;;;;;;;;;5113814;28;875;-60
2024/01/29 08:34:34;;;;;;;;;;;;;;;;;;5113897;28;805;-60
2024/01/29 08:37:00;;;;;;;;;;;;;;;;;;5112669;28;1030;-60
2024/01/29 08:39:25;;;;;;;;;;;;;;;;;;5113414;28;1002;-61
2024/01/29 08:41:50;;;;;;;;;;;;;;;;;;5113554;28;1910;-60
2024/01/29 08:44:15;;;;;;;;;;;;;;;;;;5114064;28;1006;-60
2024/01/29 08:46:40;;;;;;;;;;;;;;;;;;5114101;28;943;-60
2024/01/29 08:49:06;;;;;;;;;;;;;;;;;;5113745;28;821;-60
2024/01/29 08:51:31;;;;;;;;;;;;;;;;;;5114091;28;831;-60
2024/01/29 08:53:56;;;;;;;;;;;;;;;;;;5113877;28;847;-60
2024/01/29 08:56:22;;;;;;;;;;;;;;;;;;5113790;27;1032;-60
2024/01/29 08:58:47;;;;;;;;;;;;;;;;;;5114351;28;868;-60
2024/01/29 09:01:12;;;;;;;;;;;;;;;;;;5114130;28;1909;-61
2024/01/29 09:03:37;;;;;;;;;;;;;;;;;;5113939;28;820;-61
2024/01/29 09:06:03;;;;;;;;;;;;;;;;;;5114224;28;872;-61
2024/01/29 09:08:28;;;;;;;;;;;;;;;;;;5112606;28;1092;-60
2024/01/29 09:10:53;;;;;;;;;;;;;;;;;;5112438;28;1006;-61
2024/01/29 09:13:19;;;;;;;;;;;;;;;;;;5113092;28;1045;-60
2024/01/29 09:15:44;;;;;;;;;;;;;;;;;;5113651;28;883;-61
2024/01/29 09:18:09;;;;;;;;;;;;;;;;;;5112347;28;946;-61
2024/01/29 09:20:34;;;;;;;;;;;;;;;;;;5113809;28;982;-61
2024/01/29 09:22:59;;;;;;;;;;;;;;;;;;5113753;28;1960;-61
2024/01/29 09:25:25;;;;;;;;;;;;;;;;;;5113572;28;1172;-60
2024/01/29 09:27:50;;;;;;;;;;;;;;;;;;5113325;28;824;-61
2024/01/29 09:30:15;;;;;;;;;;;;;;;;;;5113720;28;844;-61
2024/01/29 09:32:40;;;;;;;;;;;;;;;;;;5113668;28;825;-61
2024/01/29 09:35:06;;;;;;;;;;;;;;;;;;5113294;28;887;-61
2024/01/29 09:37:31;;;;;;;;;;;;;;;;;;5113709;28;847;-61
2024/01/29 09:39:56;;;;;;;;;;;;;;;;;;5113272;28;1021;-61
2024/01/29 09:42:27;;;;;;;;;;;;;;;;;;5113228;28;1897;-61
2024/01/29 09:44:53;;;;;;;;;;;;;;;;;;5113357;28;840;-61
2024/01/29 09:47:19;;;;;;;;;;;;;;;;;;5112928;28;1046;-61
2024/01/29 09:49:45;;;;;;;;;;;;;;;;;;5113393;28;903;-60
2024/01/29 09:52:14;;;;;;;;;;;;;;;;;;5116382;28;902;-60
2024/01/29 09:54:44;;;;;;;;;;;;;;;;;;5117172;28;856;-60
2024/01/29 09:57:10;;;;;;;;;;;;;;;;;;5116932;28;1014;-60
2024/01/29 09:59:35;;;;;;;;;;;;;;;;;;5117235;28;827;-60
2024/01/29 10:02:02;;;;;;;;;;;;;;;;;;5116496;28;1902;-60
2024/01/29 10:04:27;;;;;;;;;;;;;;;;;;5115451;28;1006;-60
2024/01/29 10:06:52;;;;;;;;;;;;;;;;;;5116455;28;898;-61
2024/01/29 10:09:17;;;;;;;;;;;;;;;;;;5116383;27;810;-60
2024/01/29 10:11:43;;;;;;;;;;;;;;;;;;5116287;28;1002;-60
2024/01/29 10:14:08;;;;;;;;;;;;;;;;;;5116449;28;859;-60
2024/01/29 10:16:34;;;;;;;;;;;;;;;;;;5116519;28;828;-60
2024/01/29 10:18:59;;;;;;;;;;;;;;;;;;5115323;28;1358;-60
2024/01/29 10:21:25;;;;;;;;;;;;;;;;;;5116328;28;1890;-60
2024/01/29 10:23:54;;;;;;;;;;;;;;;;;;5115190;28;1206;-60
2024/01/29 10:26:21;;;;;;;;;;;;;;;;;;5116749;28;895;-60
2024/01/29 10:28:46;;;;;;;;;;;;;;;;;;5116770;28;867;-61
2024/01/29 10:31:12;;;;;;;;;;;;;;;;;;5116699;28;911;-61
2024/01/29 10:33:37;;;;;;;;;;;;;;;;;;5114855;28;1595;-60
2024/01/29 10:36:03;;;;;;;;;;;;;;;;;;5116302;28;1049;-60
2024/01/29 10:38:33;;;;;;;;;;;;;;;;;;5116868;28;907;-60
2024/01/29 10:40:59;;;;;;;;;;;;;;;;;;5116441;28;991;-61
2024/01/29 10:43:27;;;;;;;;;;;;;;;;;;5116407;28;1906;-60
2024/01/29 10:45:54;;;;;;;;;;;;;;;;;;5116347;28;899;-61
2024/01/29 10:48:20;;;;;;;;;;;;;;;;;;5116575;28;931;-60
2024/01/29 10:50:46;;;;;;;;;;;;;;;;;;5116640;28;887;-60
2024/01/29 10:53:11;;;;;;;;;;;;;;;;;;5116349;28;966;-60
2024/01/29 10:55:37;;;;;;;;;;;;;;;;;;5116228;28;877;-60
2024/01/29 10:58:03;;;;;;;;;;;;;;;;;;5116675;28;1131;-60
2024/01/29 11:00:29;;;;;;;;;;;;;;;;;;5116062;28;793;-60
2024/01/29 11:02:55;;;;;;;;;;;;;;;;;;5115754;28;1914;-60
2024/01/29 11:05:20;;;;;;;;;;;;;;;;;;5115660;28;1108;-59
2024/01/29 11:07:46;;;;;;;;;;;;;;;;;;5116009;28;907;-60
2024/01/29 11:10:20;;;;;;;;;;;;;;;;;;5114920;28;797;-61
2024/01/29 11:12:46;;;;;;;;;;;;;;;;;;5114920;28;931;-60
2024/01/29 11:15:11;;;;;;;;;;;;;;;;;;5115357;28;875;-61
2024/01/29 11:17:39;;;;;;;;;;;;;;;;;;5115290;28;986;-61
2024/01/29 11:20:09;;;;;;;;;;;;;;;;;;5115606;28;820;-60
2024/01/29 11:22:35;;;;;;;;;;;;;;;;;;5115131;28;1987;-61
2024/01/29 11:25:04;;;;;;;;;;;;;;;;;;5114428;28;859;-61
2024/01/29 11:27:30;;;;;;;;;;;;;;;;;;5113392;28;872;-60
2024/01/29 11:29:56;;;;;;;;;;;;;;;;;;5115671;28;923;-60
2024/01/29 11:32:21;;;;;;;;;;;;;;;;;;5113173;28;868;-61
2024/01/29 11:34:47;;;;;;;;;;;;;;;;;;5111846;28;733;-61
2024/01/29 11:37:13;;;;;;;;;;;;;;;;;;5113473;27;855;-61
2024/01/29 11:39:44;;;;;;;;;;;;;;;;;;5113674;28;900;-60
2024/01/29 11:42:10;;;;;;;;;;;;;;;;;;5114993;28;1893;-61
2024/01/29 11:44:36;;;;;;;;;;;;;;;;;;5114971;28;832;-60
2024/01/29 11:47:10;;;;;;;;;;;;;;;;;;5115009;28;828;-60
2024/01/29 11:49:36;;;;;;;;;;;;;;;;;;5114775;28;823;-61
2024/01/29 11:52:01;;;;;;;;;;;;;;;;;;5113386;28;1197;-61
2024/01/29 11:54:26;;;;;;;;;;;;;;;;;;5114682;28;836;-61
2024/01/29 11:56:51;;;;;;;;;;;;;;;;;;5114273;27;922;-60
2024/01/29 11:59:17;;;;;;;;;;;;;;;;;;5114074;28;832;-61
2024/01/29 12:01:43;;;;;;;;;;;;;;;;;;5114544;28;1898;-61
2024/01/29 12:04:09;;;;;;;;;;;;;;;;;;5113311;28;1352;-61
2024/01/29 12:06:34;;;;;;;;;;;;;;;;;;5114426;28;1017;-61
2024/01/29 12:09:00;;;;;;;;;;;;;;;;;;5113202;28;1300;-61
2024/01/29 12:11:25;;;;;;;;;;;;;;;;;;5114760;28;927;-61
2024/01/29 12:13:55;;;;;;;;;;;;;;;;;;5113672;28;824;-61
2024/01/29 12:16:21;;;;;;;;;;;;;;;;;;5114616;28;840;-61
2024/01/29 12:18:47;;;;;;;;;;;;;;;;;;5114013;28;1026;-62
2024/01/29 12:21:12;;;;;;;;;;;;;;;;;;5114197;28;864;-61
2024/01/29 12:23:37;;;;;;;;;;;;;;;;;;5113703;28;1890;-61
2024/01/29 12:26:03;;;;;;;;;;;;;;;;;;5114219;28;887;-61
2024/01/29 12:28:28;;;;;;;;;;;;;;;;;;5114241;28;871;-60
2024/01/29 12:30:57;;;;;;;;;;;;;;;;;;5113739;28;896;-61
2024/01/29 12:33:28;;;;;;;;;;;;;;;;;;5112394;28;702;-61
2024/01/29 12:35:54;;;;;;;;;;;;;;;;;;5114250;28;875;-60
2024/01/29 12:38:22;;;;;;;;;;;;;;;;;;5113860;28;867;-61
2024/01/29 12:40:47;;;;;;;;;;;;;;;;;;5114292;28;847;-60
2024/01/29 12:43:13;;;;;;;;;;;;;;;;;;5112567;28;1961;-61
2024/01/29 12:45:41;;;;;;;;;;;;;;;;;;5114105;28;852;-60
2024/01/29 12:48:15;;;;;;;;;;;;;;;;;;5114083;28;864;-61
2024/01/29 12:50:40;;;;;;;;;;;;;;;;;;5112784;28;828;-61
2024/01/29 12:53:10;;;;;;;;;;;;;;;;;;5112275;28;1257;-61
2024/01/29 12:55:35;;;;;;;;;;;;;;;;;;5113494;28;900;-61
2024/01/29 12:58:02;;;;;;;;;;;;;;;;;;5112547;28;1561;-61
2024/01/29 13:00:27;;;;;;;;;;;;;;;;;;5112186;28;740;-60
2024/01/29 13:02:52;;;;;;;;;;;;;;;;;;5113803;28;1960;-61
2024/01/29 13:05:18;;;;;;;;;;;;;;;;;;5112388;28;1429;-61
2024/01/29 13:07:43;;;;;;;;;;;;;;;;;;5113806;28;835;-61
2024/01/29 13:10:08;;;;;;;;;;;;;;;;;;5113708;28;1006;-61
2024/01/29 13:12:34;;;;;;;;;;;;;;;;;;5113971;28;872;-61
2024/01/29 13:15:01;;;;;;;;;;;;;;;;;;5112834;28;1326;-61
2024/01/29 13:17:28;;;;;;;;;;;;;;;;;;5112328;28;734;-60
2024/01/29 13:19:56;;;;;;;;;;;;;;;;;;5113738;28;887;-61
2024/01/29 13:22:21;;;;;;;;;;;;;;;;;;5113818;28;1953;-61
2024/01/29 13:24:48;;;;;;;;;;;;;;;;;;5114749;28;914;-61
2024/01/29 13:27:13;;;;;;;;;;;;;;;;;;5117791;28;871;-61
2024/01/29 13:29:38;;;;;;;;;;;;;;;;;;5117785;28;1061;-61
2024/01/29 13:32:04;;;;;;;;;;;;;;;;;;5117842;28;895;-61
2024/01/29 13:34:29;;;;;;;;;;;;;;;;;;5116631;28;1656;-61
2024/01/29 13:36:55;;;;;;;;;;;;;;;;;;5117528;28;833;-60
2024/01/29 13:39:20;;;;;;;;;;;;;;;;;;5117893;28;804;-61
2024/01/29 13:41:46;;;;;;;;;;;;;;;;;;5117474;28;1972;-61
2024/01/29 13:44:11;;;;;;;;;;;;;;;;;;5116952;28;844;-61
2024/01/29 13:46:36;;;;;;;;;;;;;;;;;;5117032;28;816;-61
2024/01/29 13:49:02;;;;;;;;;;;;;;;;;;5117772;28;950;-61
2024/01/29 13:51:28;;;;;;;;;;;;;;;;;;5117617;28;887;-61
2024/01/29 13:53:53;;;;;;;;;;;;;;;;;;5117173;28;962;-61
2024/01/29 13:56:20;;;;;;;;;;;;;;;;;;5117267;28;1016;-60
2024/01/29 13:58:45;;;;;;;;;;;;;;;;;;5117674;28;918;-59
2024/01/29 14:01:11;;;;;;;;;;;;;;;;;;5117377;28;946;-60
2024/01/29 14:03:36;;;;;;;;;;;;;;;;;;5116977;28;1969;-61
2024/01/29 14:06:02;;;;;;;;;;;;;;;;;;5117390;28;919;-61
2024/01/29 14:08:28;;;;;;;;;;;;;;;;;;5118672;28;1581;-61
2024/01/29 14:10:53;;;;;;;;;;;;;;;;;;5116160;28;797;-61
2024/01/29 14:13:18;;;;;;;;;;;;;;;;;;5115742;28;1030;-61
2024/01/29 14:15:43;;;;;;;;;;;;;;;;;;5117054;28;837;-61
2024/01/29 14:18:09;;;;;;;;;;;;;;;;;;5115514;28;912;-61
2024/01/29 14:20:34;;;;;;;;;;;;;;;;;;5116414;28;1002;-61
2024/01/29 14:23:00;;;;;;;;;;;;;;;;;;5117134;28;1906;-61
2024/01/29 14:25:25;;;;;;;;;;;;;;;;;;5116837;28;833;-61
2024/01/29 14:27:52;;;;;;;;;;;;;;;;;;5116218;28;817;-61
2024/01/29 14:30:18;;;;;;;;;;;;;;;;;;5116293;28;1021;-61
2024/01/29 14:32:43;;;;;;;;;;;;;;;;;;5116979;28;836;-61
2024/01/29 14:35:10;;;;;;;;;;;;;;;;;;5116588;28;1025;-61
2024/01/29 14:37:35;;;;;;;;;;;;;;;;;;5116255;27;868;-61
2024/01/29 14:40:01;;;;;;;;;;;;;;;;;;5116519;28;976;-61
2024/01/29 14:42:27;;;;;;;;;;;;;;;;;;5116723;28;1948;-61
2024/01/29 14:44:55;;;;;;;;;;;;;;;;;;5116646;28;843;-61
2024/01/29 14:47:20;;;;;;;;;;;;;;;;;;5116723;28;824;-62
2024/01/29 14:49:45;;;;;;;;;;;;;;;;;;5116446;28;816;-62
2024/01/29 14:52:12;;;;;;;;;;;;;;;;;;5116471;28;887;-60
2024/01/29 14:54:37;;;;;;;;;;;;;;;;;;5116659;28;891;-62
2024/01/29 14:57:02;;;;;;;;;;;;;;;;;;5116275;28;967;-62
2024/01/29 14:59:27;;;;;;;;;;;;;;;;;;5116060;28;804;-62
2024/01/29 15:01:52;;;;;;;;;;;;;;;;;;5116054;28;1905;-62
2024/01/29 15:04:18;;;;;;;;;;;;;;;;;;5115676;28;1065;-62
2024/01/29 15:06:43;;;;;;;;;;;;;;;;;;5115747;28;954;-62
2024/01/29 15:09:08;;;;;;;;;;;;;;;;;;5114371;28;1211;-62
2024/01/29 15:11:33;;;;;;;;;;;;;;;;;;5114905;28;1234;-62
2024/01/29 15:13:59;;;;;;;;;;;;;;;;;;5115551;28;789;-62
2024/01/29 15:16:24;;;;;;;;;;;;;;;;;;5113958;28;1037;-62
2024/01/29 15:18:51;;;;;;;;;;;;;;;;;;5115323;28;1053;-62
2024/01/29 15:21:16;;;;;;;;;;;;;;;;;;5115124;28;875;-62
2024/01/29 15:23:41;;;;;;;;;;;;;;;;;;5115152;28;1909;-61
2024/01/29 15:26:06;;;;;;;;;;;;;;;;;;5115624;28;935;-61
2024/01/29 15:28:31;;;;;;;;;;;;;;;;;;5115319;28;954;-61
2024/01/29 15:30:57;;;;;;;;;;;;;;;;;;5114898;28;946;-61
2024/01/29 15:33:22;;;;;;;;;;;;;;;;;;5114806;28;899;-61
2024/01/29 15:35:47;;;;;;;;;;;;;;;;;;5115123;28;961;-61
2024/01/29 15:38:18;;;;;;;;;;;;;;;;;;5114872;28;1002;-61
2024/01/29 15:40:45;;;;;;;;;;;;;;;;;;5114876;28;916;-61
2024/01/29 15:43:16;;;;;;;;;;;;;;;;;;5115096;28;1878;-61
2024/01/29 15:45:41;;;;;;;;;;;;;;;;;;5114682;28;943;-61
2024/01/29 15:48:06;;;;;;;;;;;;;;;;;;5113878;28;964;-62
2024/01/29 15:50:31;;;;;;;;;;;;;;;;;;5111407;28;1229;-62
2024/01/29 15:52:57;;;;;;;;;;;;;;;;;;5104110;28;1219;-62
2024/01/29 15:55:22;;;;;;;;;;;;;;;;;;5106107;28;1199;-62
2024/01/29 15:57:47;;;;;;;;;;;;;;;;;;5090039;28;1168;-61
2024/01/29 16:00:15;;;;;;;;;;;;;;;;;;5075438;28;1049;-61
2024/01/29 16:02:40;;;;;;;;;;;;;;;;;;5075862;28;1906;-61
2024/01/29 16:05:05;;;;;;;;;;;;;;;;;;5094066;28;1003;-62
2024/01/29 16:07:34;;;;;;;;;;;;;;;;;;5094180;28;987;-61
2024/01/29 16:09:59;;;;;;;;;;;;;;;;;;5094337;28;833;-61
2024/01/29 16:12:26;;;;;;;;;;;;;;;;;;5092824;28;1190;-61
2024/01/29 16:14:51;;;;;;;;;;;;;;;;;;5086043;28;1184;-61
2024/01/29 16:17:16;;;;;;;;;;;;;;;;;;5088629;28;1175;-62
2024/01/29 16:19:41;;;;;;;;;;;;;;;;;;5089634;28;1104;-62
2024/01/29 16:22:07;;;;;;;;;;;;;;;;;;5090726;28;1913;-61
2024/01/29 16:24:32;;;;;;;;;;;;;;;;;;5092545;28;1147;-61
2024/01/29 16:26:57;;;;;;;;;;;;;;;;;;5089965;28;1178;-62
2024/01/29 16:29:23;;;;;;;;;;;;;;;;;;5089404;28;1120;-61
2024/01/29 16:31:52;;;;;;;;;;;;;;;;;;5091520;28;833;-61
2024/01/29 16:34:18;;;;;;;;;;;;;;;;;;5090262;28;844;-61
2024/01/29 16:36:43;;;;;;;;;;;;;;;;;;5091788;28;832;-61
2024/01/29 16:39:08;;;;;;;;;;;;;;;;;;5091491;28;895;-61
2024/01/29 16:41:34;;;;;;;;;;;;;;;;;;5091652;28;1976;-61
2024/01/29 16:44:00;;;;;;;;;;;;;;;;;;5057412;28;848;-61
2024/01/29 16:46:27;;;;;;;;;;;;;;;;;;5093149;28;907;-61
2024/01/29 16:48:52;;;;;;;;;;;;;;;;;;5093235;28;840;-61
2024/01/29 16:51:24;;;;;;;;;;;;;;;;;;5093413;28;1151;-62
2024/01/29 16:53:50;;;;;;;;;;;;;;;;;;5093049;28;840;-62
2024/01/29 16:56:26;;;;;;;;;;;;;;;;;;5099534;28;928;-61
2024/01/29 16:58:53;;;;;;;;;;;;;;;;;;5113753;28;884;-61
2024/01/29 17:01:18;;;;;;;;;;;;;;;;;;5111667;28;1408;-61